Time;durP1;ratioP1;P1;durP2;ratioP2;P2;SDS_P1;SDS_P2;PMS_P1;PMS_P2;Temp;Humidity;BMP_temperature;BMP_pressure;BME280_temperature;BME280_humidity;BME280_pressure;Samples;Min_cycle;Max_cycle;Signal;HPM_P1;HPM_P2
2022/06/24 00:00:12;;;;;;;7.60;5.10;;;;;;;19.23;65.73;99170.73;1707913;84;21051;-41
2022/06/24 00:02:40;;;;;;;11.33;5.03;;;;;;;19.24;65.81;99168.95;1743622;82;21112;-41
2022/06/24 00:05:13;;;;;;;7.45;4.90;;;;;;;19.27;65.78;99172.22;1707761;84;20984;-41
2022/06/24 00:07:49;;;;;;;9.73;5.03;;;;;;;19.29;65.62;99175.33;1707757;84;20998;-41
2022/06/24 00:10:20;;;;;;;6.50;4.90;;;;;;;19.25;65.54;99173.25;1707732;84;21563;-41
2022/06/24 00:12:48;;;;;;;8.93;5.42;;;;;;;19.25;65.62;99181.50;1707493;84;20985;-41
2022/06/24 00:15:25;;;;;;;8.70;5.25;;;;;;;19.22;65.46;99179.58;1743193;82;21082;-41
2022/06/24 00:17:53;;;;;;;7.12;5.47;;;;;;;19.19;65.32;99183.18;1756703;81;20974;-41
2022/06/24 00:20:21;;;;;;;11.28;5.53;;;;;;;19.17;65.06;99182.81;1743417;82;21245;-41
2022/06/24 00:22:50;;;;;;;7.00;5.28;;;;;;;19.18;64.70;99183.00;1743571;82;21584;-41
2022/06/24 00:25:23;;;;;;;7.67;5.47;;;;;;;19.21;64.46;99182.17;1743840;81;21472;-41
2022/06/24 00:28:04;;;;;;;8.33;5.58;;;;;;;19.20;64.30;99179.24;1743571;82;21218;-41
2022/06/24 00:30:45;;;;;;;9.50;5.62;;;;;;;19.20;64.16;99177.87;1757506;81;20994;-41
2022/06/24 00:33:23;;;;;;;11.43;5.40;;;;;;;19.20;64.09;99187.48;1743612;81;20958;-41
2022/06/24 00:35:56;;;;;;;10.78;5.40;;;;;;;19.16;63.95;99185.41;1738802;82;21017;-42
2022/06/24 00:38:30;;;;;;;9.90;5.37;;;;;;;19.14;64.13;99189.16;1750474;81;21036;-41
2022/06/24 00:41:04;;;;;;;7.72;4.70;;;;;;;19.15;64.04;99189.94;1756853;81;21206;-41
2022/06/24 00:43:44;;;;;;;6.83;5.03;;;;;;;19.15;63.67;99192.09;1756849;81;20958;-41
2022/06/24 00:46:21;;;;;;;6.47;4.85;;;;;;;19.13;63.49;99183.48;1757187;81;21041;-41
2022/06/24 00:48:50;;;;;;;6.70;4.70;;;;;;;19.10;63.44;99185.11;1720752;83;21012;-41
2022/06/24 00:51:18;;;;;;;8.30;5.83;;;;;;;19.08;63.55;99183.38;1720768;83;20997;-41
2022/06/24 00:53:54;;;;;;;6.25;4.80;;;;;;;19.07;63.45;99187.94;1720861;83;21116;-41
2022/06/24 00:56:24;;;;;;;9.20;5.40;;;;;;;19.04;63.42;99195.63;1720678;83;20981;-41
2022/06/24 00:58:59;;;;;;;8.70;4.95;;;;;;;19.01;63.45;99189.61;1720619;83;21455;-41
2022/06/24 01:01:32;;;;;;;9.43;5.00;;;;;;;18.99;63.60;99185.11;1720575;83;21355;-41
2022/06/24 01:04:00;;;;;;;6.08;4.53;;;;;;;18.97;63.51;99186.16;1721147;83;20992;-41
2022/06/24 01:06:29;;;;;;;8.48;4.65;;;;;;;18.96;63.52;99175.76;1720690;83;21215;-41
2022/06/24 01:08:56;;;;;;;10.25;4.75;;;;;;;18.97;63.54;99177.91;1720924;83;21888;-41
2022/06/24 01:11:29;;;;;;;6.33;4.67;;;;;;;18.97;63.38;99186.16;1720620;83;21672;-41
2022/06/24 01:13:56;;;;;;;4.95;4.20;;;;;;;18.95;63.30;99189.91;1720713;83;20975;-41
2022/06/24 01:16:24;;;;;;;7.25;4.92;;;;;;;18.92;63.19;99177.02;1720793;83;21231;-41
2022/06/24 01:18:54;;;;;;;7.40;4.22;;;;;;;18.87;63.56;99177.50;1720765;83;21112;-41
2022/06/24 01:21:39;;;;;;;8.03;4.22;;;;;;;18.82;63.93;99180.72;1720693;83;21056;-41
2022/06/24 01:24:22;;;;;;;6.25;4.05;;;;;;;18.79;64.07;99182.32;1720980;83;21526;-41
2022/06/24 01:26:54;;;;;;;8.68;3.92;;;;;;;18.81;64.08;99184.06;1720774;83;21020;-41
2022/06/24 01:29:22;;;;;;;5.92;3.83;;;;;;;18.82;63.85;99183.47;1721102;83;21290;-41
2022/06/24 01:31:50;;;;;;;10.65;3.90;;;;;;;18.82;63.98;99187.00;1720911;83;23173;-41
2022/06/24 01:34:18;;;;;;;4.65;3.50;;;;;;;18.83;63.68;99190.52;1720984;83;20972;-41
2022/06/24 01:36:45;;;;;;;6.85;3.83;;;;;;;18.82;63.56;99193.09;1720931;83;20949;-41
2022/06/24 01:39:13;;;;;;;7.83;3.80;;;;;;;18.81;63.40;99192.90;1711492;83;21037;-41
2022/06/24 01:41:41;;;;;;;5.03;3.70;;;;;;;18.78;63.39;99198.64;1707812;84;21116;-41
2022/06/24 01:44:08;;;;;;;7.78;3.55;;;;;;;18.73;63.34;99196.97;1707756;84;23167;-41
2022/06/24 01:46:35;;;;;;;5.75;3.60;;;;;;;18.70;63.42;99190.92;1707746;84;21476;-41
2022/06/24 01:49:04;;;;;;;7.95;3.60;;;;;;;18.69;63.28;99184.65;1707725;84;20898;-41
2022/06/24 01:51:31;;;;;;;5.47;3.40;;;;;;;18.69;63.11;99189.39;1707912;84;21092;-41
2022/06/24 01:53:58;;;;;;;8.30;3.27;;;;;;;18.68;63.17;99191.95;1686442;84;21008;-41
2022/06/24 01:56:26;;;;;;;5.35;3.92;;;;;;;18.65;63.12;99184.72;1707664;84;21248;-41
2022/06/24 01:58:54;;;;;;;7.75;3.60;;;;;;;18.64;62.97;99177.66;1707504;84;20953;-41
2022/06/24 02:01:21;;;;;;;5.97;3.20;;;;;;;18.62;62.85;99185.56;1707763;84;21088;-41
2022/06/24 02:03:48;;;;;;;7.37;3.85;;;;;;;18.59;62.93;99189.72;1707569;84;21539;-41
2022/06/24 02:06:15;;;;;;;4.25;3.33;;;;;;;18.59;62.77;99191.87;1707673;84;21033;-41
2022/06/24 02:08:43;;;;;;;7.50;3.30;;;;;;;18.60;62.70;99189.31;1707612;84;21195;-41
2022/06/24 02:13:57;;;;;;;3.70;2.92;;;;;;;18.64;62.58;99179.04;1734580;82;21021;-41
2022/06/24 02:16:25;;;;;;;9.90;3.25;;;;;;;18.58;62.68;99182.10;1743697;81;21622;-41
2022/06/24 02:18:54;;;;;;;5.78;2.90;;;;;;;18.57;62.86;99183.89;1743563;82;21025;-41
2022/06/24 02:21:22;;;;;;;5.97;3.30;;;;;;;18.53;62.77;99178.45;1707204;83;23126;-40
2022/06/24 02:23:50;;;;;;;6.58;3.37;;;;;;;18.52;62.63;99179.62;1707494;84;20969;-41
2022/06/24 02:26:17;;;;;;;7.55;3.10;;;;;;;18.51;62.71;99182.17;1707802;84;20989;-41
2022/06/24 02:28:44;;;;;;;5.30;3.25;;;;;;;18.50;62.78;99184.73;1707749;84;21049;-41
2022/06/24 02:31:12;;;;;;;5.65;3.15;;;;;;;18.49;62.64;99187.30;1707918;84;20985;-41
2022/06/24 02:33:40;;;;;;;7.55;3.05;;;;;;;18.54;62.64;99192.97;1707760;84;21089;-41
2022/06/24 02:36:08;;;;;;;9.95;3.45;;;;;;;18.57;62.68;99194.27;1707780;84;21045;-41
2022/06/24 02:38:37;;;;;;;6.75;2.87;;;;;;;18.59;62.64;99191.87;1710196;83;20969;-41
2022/06/24 02:41:04;;;;;;;6.05;3.25;;;;;;;18.60;62.58;99192.05;1715355;83;21025;-41
2022/06/24 02:43:36;;;;;;;4.87;2.90;;;;;;;18.59;62.29;99182.27;1715170;83;21009;-41
2022/06/24 02:46:10;;;;;;;9.35;2.80;;;;;;;18.58;62.12;99186.22;1715298;83;21119;-41
2022/06/24 02:48:38;;;;;;;5.85;2.72;;;;;;;18.56;62.03;99183.70;1715199;83;21024;-41
2022/06/24 02:51:10;;;;;;;7.22;2.87;;;;;;;18.50;61.90;99180.62;1715408;83;20970;-41
2022/06/24 02:53:38;;;;;;;3.17;2.80;;;;;;;18.45;61.95;99181.09;1715277;83;21071;-41
2022/06/24 02:56:09;;;;;;;4.90;2.92;;;;;;;18.42;61.64;99189.39;1715367;83;21014;-41
2022/06/24 02:58:37;;;;;;;5.30;2.60;;;;;;;18.40;61.64;99187.05;1715232;83;21194;-41
2022/06/24 03:01:04;;;;;;;4.53;2.40;;;;;;;18.43;61.67;99194.47;1715297;83;21574;-41
2022/06/24 03:03:31;;;;;;;3.87;2.60;;;;;;;18.45;61.39;99192.07;1715312;83;21057;-41
2022/06/24 03:05:59;;;;;;;3.67;2.60;;;;;;;18.47;61.34;99195.78;1687013;83;21562;-41
2022/06/24 03:08:26;;;;;;;3.95;2.60;;;;;;;18.49;61.30;99195.53;1710293;83;21021;-41
2022/06/24 03:10:55;;;;;;;6.20;2.67;;;;;;;18.50;61.00;99195.72;1715353;83;21252;-41
2022/06/24 03:13:22;;;;;;;3.75;2.42;;;;;;;18.52;60.93;99193.34;1715212;83;21035;-41
2022/06/24 03:15:50;;;;;;;6.97;2.50;;;;;;;18.56;61.03;99194.09;1715530;83;21084;-41
2022/06/24 03:18:18;;;;;;;6.67;2.72;;;;;;;18.56;60.82;99194.09;1715526;83;21037;-41
2022/06/24 03:20:46;;;;;;;4.17;2.52;;;;;;;18.55;60.81;99198.02;1715489;83;21016;-41
2022/06/24 03:23:15;;;;;;;5.12;2.67;;;;;;;18.54;60.83;99200.58;1715598;83;21133;-41
2022/06/24 03:25:42;;;;;;;3.92;2.70;;;;;;;18.51;60.97;99190.41;1715675;83;21100;-41
2022/06/24 03:28:10;;;;;;;5.22;2.30;;;;;;;18.51;60.97;99194.53;1711267;83;20941;-41
2022/06/24 03:30:37;;;;;;;5.60;2.27;;;;;;;18.52;60.92;99194.72;1715350;83;20989;-41
2022/06/24 03:33:05;;;;;;;7.97;3.05;;;;;;;18.58;60.96;99198.58;1715437;83;21534;-41
2022/06/24 03:35:33;;;;;;;8.93;2.40;;;;;;;18.63;61.07;99198.11;1715722;83;21290;-41
2022/06/24 03:38:01;;;;;;;5.35;2.60;;;;;;;18.66;61.24;99197.85;1715268;83;21484;-41
2022/06/24 03:40:28;;;;;;;5.83;2.55;;;;;;;18.69;61.34;99201.75;1707918;83;21024;-41
2022/06/24 03:42:55;;;;;;;4.03;2.60;;;;;;;18.70;61.61;99195.82;1707935;84;21049;-41
2022/06/24 03:45:25;;;;;;;7.47;2.50;;;;;;;18.70;61.66;99193.66;1707807;84;21091;-41
2022/06/24 03:47:53;;;;;;;3.97;2.40;;;;;;;18.65;61.55;99193.55;1708284;84;21313;-41
2022/06/24 03:50:20;;;;;;;5.40;2.60;;;;;;;18.66;61.58;99197.85;1707858;84;21076;-41
2022/06/24 03:52:47;;;;;;;5.83;2.95;;;;;;;18.66;61.43;99205.50;1703034;84;21460;-41
2022/06/24 03:55:14;;;;;;;5.90;2.30;;;;;;;18.67;61.45;99199.41;1707866;84;21080;-41
2022/06/24 03:57:42;;;;;;;6.60;2.35;;;;;;;18.71;61.23;99201.50;1707875;84;21712;-41
2022/06/24 04:00:11;;;;;;;6.30;2.37;;;;;;;18.74;61.11;99202.62;1707939;84;21111;-41
2022/06/24 04:02:41;;;;;;;4.22;2.60;;;;;;;18.78;61.00;99207.48;1707804;84;20996;-41
2022/06/24 04:05:10;;;;;;;6.10;2.40;;;;;;;18.82;60.88;99204.07;1708024;84;21016;-41
2022/06/24 04:07:39;;;;;;;3.87;2.25;;;;;;;18.84;60.86;99205.19;1707870;84;21037;-41
2022/06/24 04:10:07;;;;;;;4.62;2.45;;;;;;;18.86;61.07;99201.44;1708109;84;21084;-41
2022/06/24 04:12:36;;;;;;;;;;;;;;;18.85;60.96;99196.36;1710834;84;21816;-41
2022/06/24 04:15:14;;;;;;;4.47;2.22;;;;;;;18.86;60.85;99196.54;1694587;84;20098;-41
2022/06/24 04:17:42;;;;;;;5.40;2.40;;;;;;;18.77;60.96;99199.84;1707799;83;21579;-41
2022/06/24 04:20:11;;;;;;;3.45;2.20;;;;;;;18.80;61.06;99212.72;1708122;84;21021;-41
2022/06/24 04:22:39;;;;;;;3.60;2.25;;;;;;;18.86;61.10;99210.28;1707452;83;21046;-41
2022/06/24 04:25:07;;;;;;;4.15;2.25;;;;;;;18.91;60.76;99218.82;1707602;83;22119;-41
2022/06/24 04:27:34;;;;;;;7.28;2.80;;;;;;;18.98;60.53;99209.66;1702309;83;21671;-41
2022/06/24 04:30:03;;;;;;;3.83;2.52;;;;;;;19.04;60.41;99216.23;1707541;84;21521;-41
2022/06/24 04:32:30;;;;;;;4.45;2.20;;;;;;;19.12;60.01;99209.44;1707370;83;21129;-41
2022/06/24 04:34:57;;;;;;;5.12;2.22;;;;;;;19.17;59.93;99207.55;1707616;84;21101;-41
2022/06/24 04:37:24;;;;;;;3.60;2.22;;;;;;;19.24;59.95;99206.65;1707409;83;21132;-41
2022/06/24 04:39:52;;;;;;;7.67;2.50;;;;;;;19.23;59.76;99206.47;1707527;83;21500;-41
2022/06/24 04:42:19;;;;;;;9.28;2.20;;;;;;;19.23;59.76;99214.12;1707459;84;20985;-41
2022/06/24 04:44:46;;;;;;;3.17;2.17;;;;;;;19.28;59.49;99214.23;1707395;84;21025;-41
2022/06/24 04:47:13;;;;;;;3.58;2.15;;;;;;;19.31;59.48;99211.44;1707572;84;21014;-41
2022/06/24 04:49:40;;;;;;;3.30;2.15;;;;;;;19.34;58.36;99209.20;1707650;83;21508;-41
2022/06/24 04:52:07;;;;;;;5.78;2.45;;;;;;;19.37;58.46;99219.34;1707456;83;20934;-41
2022/06/24 04:54:35;;;;;;;5.17;2.40;;;;;;;19.38;58.21;99223.66;1707568;84;21060;-41
2022/06/24 04:57:03;;;;;;;7.08;2.25;;;;;;;19.39;57.83;99223.84;1707588;84;21077;-41
2022/06/24 04:59:30;;;;;;;3.67;2.10;;;;;;;19.43;57.18;99225.14;1707765;84;21069;-41
2022/06/24 05:01:57;;;;;;;6.78;2.47;;;;;;;19.43;56.46;99225.91;1707729;84;21233;-41
2022/06/24 05:04:24;;;;;;;4.62;2.27;;;;;;;19.45;56.54;99220.81;1707555;84;20978;-41
2022/06/24 05:06:52;;;;;;;5.15;2.30;;;;;;;19.48;56.22;99230.17;1707723;84;20998;-41
2022/06/24 05:09:19;;;;;;;4.03;2.40;;;;;;;19.48;56.04;99224.67;1707676;83;21093;-41
2022/06/24 05:11:48;;;;;;;5.67;2.25;;;;;;;19.50;55.77;99225.05;1707648;84;21058;-41
2022/06/24 05:14:15;;;;;;;4.42;2.50;;;;;;;19.52;54.98;99226.16;1707660;84;23133;-41
2022/06/24 05:16:42;;;;;;;5.22;2.22;;;;;;;19.52;54.98;99226.16;1707402;84;21009;-41
2022/06/24 05:19:10;;;;;;;4.12;2.40;;;;;;;19.53;55.02;99223.59;1707488;83;20989;-41
2022/06/24 05:21:37;;;;;;;4.05;2.10;;;;;;;19.59;55.09;99225.85;1707224;84;21560;-41
2022/06/24 05:24:06;;;;;;;7.08;2.47;;;;;;;19.64;54.94;99234.98;1707460;84;21097;-41
2022/06/24 05:26:33;;;;;;;5.25;2.40;;;;;;;19.67;54.61;99230.00;1707554;84;21128;-41
2022/06/24 05:29:01;;;;;;;3.72;2.62;;;;;;;19.69;54.41;99235.27;1707403;84;21575;-41
2022/06/24 05:31:28;;;;;;;5.00;2.30;;;;;;;19.74;54.65;99237.52;1707415;83;20953;-41
2022/06/24 05:33:55;;;;;;;6.92;2.50;;;;;;;19.81;54.93;99235.98;1707398;84;20958;-41
2022/06/24 05:36:23;;;;;;;3.40;2.10;;;;;;;19.90;54.93;99249.17;1707492;84;21026;-41
2022/06/24 05:38:50;;;;;;;3.72;2.22;;;;;;;19.98;54.85;99240.19;1707567;83;21143;-42
2022/06/24 05:41:17;;;;;;;5.67;2.45;;;;;;;20.07;54.83;99239.78;1713003;83;20954;-41
2022/06/24 05:43:45;;;;;;;3.40;2.17;;;;;;;20.17;54.90;99241.53;1712799;83;21033;-42
2022/06/24 05:46:13;;;;;;;3.27;2.55;;;;;;;20.28;54.22;99236.55;1713128;83;21026;-42
2022/06/24 05:48:41;;;;;;;6.42;2.98;;;;;;;20.45;54.52;99243.49;1712808;83;21038;-41
2022/06/24 05:51:15;;;;;;;6.35;3.10;;;;;;;20.60;53.33;99243.34;1713182;83;21253;-42
2022/06/24 05:56:30;;;;;;;4.87;2.98;;;;;;;20.90;52.15;99246.36;1700612;84;21075;-42
2022/06/24 05:58:57;;;;;;;4.87;2.92;;;;;;;20.98;52.23;99241.61;1700641;84;21112;-41
2022/06/24 06:01:25;;;;;;;4.40;2.80;;;;;;;21.04;51.60;99235.75;1700963;84;21000;-41
2022/06/24 06:03:53;;;;;;;5.00;3.20;;;;;;;21.08;51.26;99232.30;1700626;84;21111;-42
2022/06/24 06:06:20;;;;;;;7.37;3.33;;;;;;;21.12;50.85;99232.20;1700547;84;21487;-42
2022/06/24 06:08:47;;;;;;;3.62;3.10;;;;;;;21.13;51.08;99228.24;1700720;84;21005;-42
2022/06/24 06:11:19;;;;;;;6.20;3.40;;;;;;;21.16;50.70;99228.17;1672631;84;21008;-41
2022/06/24 06:13:47;;;;;;;6.15;3.45;;;;;;;21.19;50.92;99234.21;1700519;84;21075;-42
2022/06/24 06:16:14;;;;;;;6.47;2.90;;;;;;;21.27;51.19;99229.27;1700895;84;21101;-42
2022/06/24 06:18:41;;;;;;;4.90;2.92;;;;;;;21.37;51.31;99229.59;1700439;84;22028;-42
2022/06/24 06:21:10;;;;;;;4.37;3.12;;;;;;;21.48;51.47;99234.22;1700594;84;21122;-42
2022/06/24 06:23:38;;;;;;;5.15;3.35;;;;;;;21.59;50.77;99233.30;1700398;84;21571;-42
2022/06/24 06:26:07;;;;;;;7.97;3.15;;;;;;;21.66;50.04;99228.20;1700693;84;21111;-42
2022/06/24 06:28:34;;;;;;;6.00;3.30;;;;;;;21.75;50.67;99231.09;1700366;84;21214;-42
2022/06/24 06:31:01;;;;;;;5.97;3.40;;;;;;;21.85;50.03;99222.34;1700457;84;21070;-42
2022/06/24 06:33:31;;;;;;;8.08;3.30;;;;;;;21.95;49.63;99223.45;1700411;84;21012;-42
2022/06/24 06:36:08;;;;;;;5.20;3.10;;;;;;;22.12;50.35;99228.89;1700702;84;21016;-42
2022/06/24 06:38:36;;;;;;;5.55;3.10;;;;;;;22.25;48.66;99221.38;1700350;84;21061;-42
2022/06/24 06:41:03;;;;;;;6.72;2.90;;;;;;;22.40;48.37;99225.25;1700410;83;21239;-42
2022/06/24 06:43:30;;;;;;;3.98;2.85;;;;;;;22.52;48.91;99220.31;1710201;84;21821;-42
2022/06/24 06:45:58;;;;;;;5.05;2.67;;;;;;;22.67;47.68;99232.46;1684532;84;20965;-42
2022/06/24 06:48:25;;;;;;;5.30;3.00;;;;;;;22.79;47.50;99228.95;1709819;83;21008;-42
2022/06/24 06:50:58;;;;;;;5.50;2.77;;;;;;;22.94;45.59;99225.11;1710001;84;21044;-42
2022/06/24 06:53:26;;;;;;;8.25;3.35;;;;;;;23.09;45.59;99224.77;1698234;84;21260;-42
2022/06/24 06:55:53;;;;;;;6.87;2.98;;;;;;;23.23;45.84;99224.91;1709500;83;20996;-42
2022/06/24 06:58:25;;;;;;;4.35;2.65;;;;;;;23.41;45.78;99226.44;1682610;84;21024;-42
2022/06/24 07:00:50;;;;;;;4.72;3.00;;;;;;;23.54;44.48;99227.17;1673341;85;21128;-42
2022/06/24 07:03:17;;;;;;;3.70;2.70;;;;;;;23.66;43.74;99227.73;1652661;86;21073;-42
2022/06/24 07:05:44;;;;;;;6.40;2.47;;;;;;;23.76;42.29;99239.03;1693888;84;21256;-42
2022/06/24 07:08:12;;;;;;;6.28;2.40;;;;;;;23.85;42.08;99243.08;1669570;86;21617;-42
2022/06/24 07:10:40;;;;;;;4.85;2.40;;;;;;;23.93;42.59;99231.28;1700372;84;21067;-42
2022/06/24 07:13:07;;;;;;;5.08;2.50;;;;;;;24.01;41.76;99238.09;1671320;84;21155;-42
2022/06/24 07:15:34;;;;;;;3.17;2.37;;;;;;;24.09;42.64;99239.98;1692923;84;21041;-42
2022/06/24 07:18:03;;;;;;;4.35;2.60;;;;;;;24.16;41.07;99239.70;1676975;84;22140;-42
2022/06/24 07:20:31;;;;;;;3.30;2.37;;;;;;;24.25;41.08;99245.34;1688674;84;21104;-42
2022/06/24 07:22:58;;;;;;;7.33;2.90;;;;;;;24.36;40.44;99236.59;1671183;84;21052;-42
2022/06/24 07:25:25;;;;;;;3.40;2.27;;;;;;;24.49;40.05;99238.06;1690310;84;21600;-42
2022/06/24 07:27:52;;;;;;;4.75;2.50;;;;;;;24.61;39.67;99240.55;1697678;84;21076;-42
2022/06/24 07:30:19;;;;;;;4.00;2.30;;;;;;;24.69;39.87;99232.86;1695050;84;21139;-42
2022/06/24 07:32:47;;;;;;;6.80;2.80;;;;;;;24.81;39.17;99233.98;1697432;84;20973;-42
2022/06/24 07:35:15;;;;;;;3.42;2.35;;;;;;;24.91;39.35;99228.64;1697708;84;21441;-42
2022/06/24 07:37:42;;;;;;;4.42;2.60;;;;;;;25.01;39.75;99233.59;1697381;84;21001;-42
2022/06/24 07:40:11;;;;;;;4.33;2.30;;;;;;;25.08;39.31;99236.05;1704278;83;21058;-42
2022/06/24 07:42:38;;;;;;;3.77;2.58;;;;;;;25.16;38.75;99237.92;1720789;83;21126;-43
2022/06/24 07:45:07;;;;;;;4.75;2.33;;;;;;;25.21;38.56;99242.86;1692194;84;21547;-44
2022/06/24 07:47:35;;;;;;;3.15;2.27;;;;;;;25.26;38.64;99243.64;1684676;84;21083;-44
2022/06/24 07:50:05;;;;;;;5.67;2.75;;;;;;;25.26;38.69;99240.25;1691889;84;21064;-44
2022/06/24 07:52:32;;;;;;;4.30;2.60;;;;;;;25.28;39.54;99241.93;1662336;86;21075;-44
2022/06/24 07:57:45;;;;;;;4.35;2.80;;;;;;;25.34;39.71;99242.09;1662708;86;21037;-44
2022/06/24 08:00:13;;;;;;;2.80;2.17;;;;;;;25.32;39.15;99245.31;1692082;84;21068;-44
2022/06/24 08:02:40;;;;;;;3.62;2.40;;;;;;;25.33;38.08;99248.25;1662488;86;21020;-44
2022/06/24 08:05:08;;;;;;;4.30;2.52;;;;;;;25.32;38.11;99248.09;1692040;84;21080;-44
2022/06/24 08:07:36;;;;;;;4.75;2.60;;;;;;;25.34;38.54;99263.67;1662391;86;21161;-44
2022/06/24 08:10:06;;;;;;;4.42;2.70;;;;;;;25.35;37.75;99248.57;1691620;84;21540;-44
2022/06/24 08:12:33;;;;;;;6.05;2.80;;;;;;;25.35;38.43;99249.96;1658000;86;21059;-44
2022/06/24 08:15:00;;;;;;;5.30;2.72;;;;;;;25.37;38.22;99253.03;1691873;84;21633;-44
2022/06/24 08:17:28;;;;;;;7.58;2.60;;;;;;;25.38;37.66;99236.54;1662490;86;21051;-44
2022/06/24 08:19:55;;;;;;;4.72;2.77;;;;;;;25.38;38.79;99249.03;1691942;84;21243;-44
2022/06/24 08:22:23;;;;;;;3.67;2.42;;;;;;;25.42;38.95;99245.48;1662517;86;21048;-44
2022/06/24 08:24:51;;;;;;;7.85;2.80;;;;;;;25.42;38.58;99250.25;1691865;84;21034;-44
2022/06/24 08:27:18;;;;;;;5.28;2.47;;;;;;;25.42;38.79;99255.19;1662549;86;21068;-44
2022/06/24 08:29:45;;;;;;;6.50;2.80;;;;;;;25.41;38.44;99252.28;1691951;84;21083;-44
2022/06/24 08:32:13;;;;;;;3.67;2.50;;;;;;;25.41;39.46;99248.13;1662444;86;23122;-44
2022/06/24 08:34:43;;;;;;;3.70;2.60;;;;;;;25.42;39.05;99251.03;1691991;84;21669;-44
2022/06/24 08:37:10;;;;;;;4.50;2.58;;;;;;;25.41;38.46;99255.06;1662910;86;21533;-44
2022/06/24 08:39:38;;;;;;;4.67;2.67;;;;;;;25.42;38.51;99249.64;1691845;84;21614;-44
2022/06/24 08:42:05;;;;;;;4.80;2.58;;;;;;;25.46;39.11;99244.70;1644306;86;21101;-44
2022/06/24 08:44:34;;;;;;;5.83;2.77;;;;;;;25.52;38.85;99247.63;1705931;84;21143;-44
2022/06/24 08:47:02;;;;;;;3.17;2.42;;;;;;;25.56;38.70;99241.36;1686279;84;20961;-44
2022/06/24 08:49:32;;;;;;;3.77;2.98;;;;;;;25.63;37.81;99243.80;1705702;84;21010;-44
2022/06/24 08:52:00;;;;;;;5.83;2.35;;;;;;;25.70;38.20;99248.28;1705597;84;21560;-44
2022/06/24 08:54:30;;;;;;;5.67;2.87;;;;;;;25.76;37.69;99239.46;1705716;84;21037;-44
2022/06/24 08:56:58;;;;;;;5.90;2.95;;;;;;;25.81;37.84;99237.45;1705836;84;21092;-44
2022/06/24 08:59:27;;;;;;;6.67;2.75;;;;;;;25.82;37.71;99241.16;1705492;84;21084;-44
2022/06/24 09:01:54;;;;;;;3.98;2.83;;;;;;;25.81;37.87;99233.28;1686386;84;21543;-44
2022/06/24 09:04:23;;;;;;;4.97;2.92;;;;;;;25.82;38.45;99237.61;1705706;82;20945;-44
2022/06/24 09:06:50;;;;;;;3.45;2.77;;;;;;;25.84;37.35;99244.87;1705629;84;21026;-44
2022/06/24 09:09:25;;;;;;;3.77;2.75;;;;;;;25.78;37.19;99235.61;1705762;84;21244;-44
2022/06/24 09:11:57;;;;;;;4.92;2.80;;;;;;;25.75;37.65;99237.33;1705622;84;21515;-44
2022/06/24 09:14:53;;;;;;;4.87;2.60;;;;;;;25.74;37.93;99236.39;1705638;84;21030;-44
2022/06/24 09:17:16;;;;;;;8.13;2.70;;;;;;;25.69;37.88;99232.85;1704603;83;21101;-44
2022/06/24 09:19:43;;;;;;;8.55;3.05;;;;;;;25.63;38.31;99231.31;1705803;84;21036;-44
2022/06/24 09:22:10;;;;;;;4.72;3.12;;;;;;;25.63;38.24;99232.70;1705963;84;21138;-44
2022/06/24 09:24:45;;;;;;;4.17;2.75;;;;;;;25.66;38.39;99233.15;1706111;84;21017;-44
2022/06/24 09:27:12;;;;;;;3.60;2.87;;;;;;;25.69;39.37;99233.63;1706028;84;21042;-44
2022/06/24 09:29:48;;;;;;;4.58;3.00;;;;;;;25.69;38.79;99227.30;1705958;84;21093;-44
2022/06/24 09:32:15;;;;;;;4.28;2.87;;;;;;;25.68;39.31;99227.91;1705879;84;21025;-44
2022/06/24 09:35:07;;;;;;;6.20;3.35;;;;;;;25.73;38.69;99227.91;1705767;84;21243;-44
2022/06/24 09:37:46;;;;;;;3.52;3.00;;;;;;;25.79;39.23;99222.66;1700735;84;20994;-44
2022/06/24 09:40:18;;;;;;;4.72;3.08;;;;;;;25.95;38.84;99215.97;1706020;83;20989;-45
2022/06/24 09:43:03;;;;;;;4.78;3.10;;;;;;;26.15;38.67;99212.05;1722244;82;21064;-44
2022/06/24 09:45:49;;;;;;;6.10;2.50;;;;;;;26.33;38.00;99217.59;1732022;82;21670;-44
2022/06/24 09:48:32;;;;;;;5.33;3.10;;;;;;;26.55;37.49;99213.77;1718993;83;21216;-44
2022/06/24 09:51:04;;;;;;;3.25;2.85;;;;;;;26.72;37.49;99211.49;1719031;83;21001;-44
2022/06/24 09:53:37;;;;;;;5.08;3.02;;;;;;;26.90;37.67;99205.72;1718976;83;21026;-45
2022/06/24 09:56:07;;;;;;;5.62;2.80;;;;;;;27.01;37.38;99203.95;1718772;83;21001;-44
2022/06/24 09:58:37;;;;;;;3.52;3.00;;;;;;;27.08;36.42;99189.66;1719132;83;21041;-44
2022/06/24 10:01:05;;;;;;;3.35;2.90;;;;;;;27.08;36.95;99189.66;1723199;82;21078;-44
2022/06/24 10:03:35;;;;;;;11.07;3.13;;;;;;;27.15;36.88;99194.09;1719379;82;20973;-44
2022/06/24 10:06:10;;;;;;;5.85;3.08;;;;;;;27.21;35.89;99199.91;1719540;83;21140;-44
2022/06/24 10:08:38;;;;;;;6.72;3.77;;;;;;;27.15;35.33;99197.66;1719286;83;21452;-44
2022/06/24 10:11:09;;;;;;;5.33;3.08;;;;;;;27.02;35.17;99191.55;1721310;82;21001;-44
2022/06/24 10:13:38;;;;;;;3.17;2.72;;;;;;;26.98;35.52;99196.53;1693383;83;21817;-44
2022/06/24 10:16:07;;;;;;;2.90;2.60;;;;;;;27.00;36.25;99198.23;1719040;83;21161;-44
2022/06/24 10:18:42;;;;;;;5.12;3.30;;;;;;;27.04;35.57;99189.07;1718976;83;21460;-44
2022/06/24 10:21:10;;;;;;;4.87;2.72;;;;;;;27.07;36.23;99199.24;1719203;83;21555;-45
2022/06/24 10:23:45;;;;;;;4.10;2.60;;;;;;;27.06;36.19;99196.95;1719024;83;21052;-44
2022/06/24 10:26:28;;;;;;;4.58;2.87;;;;;;;27.01;35.63;99196.98;1732073;82;23150;-44
2022/06/24 10:29:09;;;;;;;4.75;2.95;;;;;;;26.98;35.28;99197.92;1748563;82;21417;-44
2022/06/24 10:31:54;;;;;;;4.62;2.85;;;;;;;27.04;35.86;99202.98;1747528;82;21539;-44
2022/06/24 10:34:32;;;;;;;4.97;2.62;;;;;;;27.21;35.76;99195.73;1733416;82;21044;-44
2022/06/24 10:37:17;;;;;;;3.67;2.53;;;;;;;27.49;35.29;99191.36;1727135;82;21032;-44
2022/06/24 10:39:47;;;;;;;4.03;2.77;;;;;;;27.70;34.87;99187.42;1742191;82;21239;-44
2022/06/24 10:42:22;;;;;;;3.02;2.52;;;;;;;27.97;34.16;99187.14;1728781;82;21014;-44
2022/06/24 10:44:58;;;;;;;3.55;2.80;;;;;;;28.22;33.43;99179.45;1725297;82;21603;-45
2022/06/24 10:47:38;;;;;;;3.10;2.55;;;;;;;28.41;33.31;99179.35;1738615;82;20932;-45
2022/06/24 10:50:13;;;;;;;4.83;2.95;;;;;;;28.58;33.12;99177.55;1743246;82;21088;-44
2022/06/24 10:52:51;;;;;;;3.02;2.72;;;;;;;28.64;32.48;99186.77;1743314;82;21840;-45
2022/06/24 10:56:39;;;;;;;5.30;2.62;;;;;;;28.41;31.81;99177.33;1797280;79;22521;-44
2022/06/24 10:59:06;;;;;;;4.30;2.98;;;;;;;28.18;32.72;99183.03;1757312;80;21007;-45
2022/06/24 11:01:34;;;;;;;3.77;2.80;;;;;;;28.23;33.48;99178.17;1757097;81;21250;-45
2022/06/24 11:04:03;;;;;;;3.55;2.52;;;;;;;28.34;33.72;99178.34;1757176;81;20937;-44
2022/06/24 11:06:32;;;;;;;2.95;2.55;;;;;;;28.51;33.21;99179.38;1757325;81;20890;-45
2022/06/24 11:09:06;;;;;;;3.42;2.40;;;;;;;28.65;32.80;99174.98;1757375;81;21004;-45
2022/06/24 11:11:35;;;;;;;5.00;2.77;;;;;;;28.67;32.49;99175.25;1757163;81;20965;-45
2022/06/24 11:14:26;;;;;;;5.90;3.00;;;;;;;28.57;32.57;99171.06;1757095;81;21132;-45
2022/06/24 11:16:54;;;;;;;5.87;2.87;;;;;;;28.52;32.67;99165.55;1762143;80;20961;-44
2022/06/24 11:19:21;;;;;;;4.78;2.67;;;;;;;28.58;32.78;99171.97;1750460;81;20936;-45
2022/06/24 11:21:50;;;;;;;4.75;3.22;;;;;;;28.67;33.28;99174.62;1746231;81;21550;-45
2022/06/24 11:24:20;;;;;;;3.92;2.50;;;;;;;28.84;31.96;99164.50;1756860;81;21057;-45
2022/06/24 11:27:07;;;;;;;3.83;2.77;;;;;;;29.01;32.31;99151.35;1723667;83;21136;-45
2022/06/24 11:30:00;;;;;;;6.90;2.90;;;;;;;29.28;32.68;99149.52;1723686;83;21431;-45
2022/06/24 11:32:27;;;;;;;4.22;2.80;;;;;;;29.52;31.76;99147.87;1723522;83;21011;-45
2022/06/24 11:34:54;;;;;;;3.72;2.67;;;;;;;29.58;31.25;99153.63;1723498;83;21562;-45
2022/06/24 11:37:25;;;;;;;4.30;2.50;;;;;;;29.57;31.42;99149.95;1723585;83;20956;-45
2022/06/24 11:39:58;;;;;;;3.40;2.47;;;;;;;29.66;31.69;99146.36;1723490;83;21137;-45
2022/06/24 11:42:25;;;;;;;5.22;2.58;;;;;;;29.80;30.75;99142.67;1723653;83;21048;-45
2022/06/24 11:44:52;;;;;;;5.22;2.40;;;;;;;30.01;30.15;99150.98;1723598;83;20992;-45
2022/06/24 11:47:33;;;;;;;2.65;2.42;;;;;;;30.17;29.43;99148.92;1721972;83;21373;-45
2022/06/24 11:50:00;;;;;;;4.03;2.27;;;;;;;30.33;29.51;99139.88;1741202;82;21056;-45
2022/06/24 11:52:28;;;;;;;5.72;2.58;;;;;;;30.64;28.53;99138.41;1685522;83;21145;-45
2022/06/24 11:54:55;;;;;;;4.55;2.50;;;;;;;30.86;28.40;99152.38;1721060;82;21004;-45